Time;durP1;ratioP1;P1;durP2;ratioP2;P2;SDS_P1;SDS_P2;PMS_P1;PMS_P2;Temp;Humidity;BMP_temperature;BMP_pressure;BME280_temperature;BME280_humidity;BME280_pressure;Samples;Min_cycle;Max_cycle;Signal;HPM_P1;HPM_P2
2024/04/08 00:00:31;;;;;;;;;;;;;;;10.16;88.83;98499.33;103828;1277;62197;-40
2024/04/08 00:02:58;;;;;;;;;;;;;;;10.12;88.88;98496.94;103809;1280;75441;-39
2024/04/08 00:05:29;;;;;;;;;;;;;;;10.06;89.14;98493.52;103790;1280;64718;-39
2024/04/08 00:07:56;;;;;;;;;;;;;;;10.02;89.16;98488.77;103764;1277;72421;-40
2024/04/08 00:10:23;;;;;;;;;;;;;;;9.97;89.18;98490.17;103747;1282;62155;-40
2024/04/08 00:12:50;;;;;;;;;;;;;;;9.94;89.40;98488.22;103736;1277;62130;-40
2024/04/08 00:15:17;;;;;;;;;;;;;;;9.95;89.45;98484.20;103756;1276;75144;-40
2024/04/08 00:17:44;;;;;;;;;;;;;;;9.97;89.38;98487.72;103829;1277;66075;-40
2024/04/08 00:20:11;;;;;;;;;;;;;;;9.99;89.34;98491.94;103761;1277;72615;-40
2024/04/08 00:22:38;;;;;;;;;;;;;;;10.01;89.37;98493.07;103755;1279;62078;-40
2024/04/08 00:25:06;;;;;;;;;;;;;;;10.04;89.08;98489.61;103615;1277;62097;-40
2024/04/08 00:27:33;;;;;;;;;;;;;;;10.07;88.99;98492.66;103936;1277;75087;-40
2024/04/08 00:30:00;;;;;;;;;;;;;;;10.08;88.73;98495.02;103893;1276;65521;-40
2024/04/08 00:32:28;;;;;;;;;;;;;;;10.08;88.67;98492.98;103791;1277;73166;-40
2024/04/08 00:34:55;;;;;;;;;;;;;;;10.07;88.74;98496.45;104091;1289;62078;-40
2024/04/08 00:37:22;;;;;;;;;;;;;;;10.05;88.63;98496.30;103970;1277;62094;-40
2024/04/08 00:39:49;;;;;;;;;;;;;;;10.06;88.63;98497.69;103925;1276;75389;-38
2024/04/08 00:42:16;;;;;;;;;;;;;;;10.11;88.51;98497.27;103754;1276;65496;-39
2024/04/08 00:44:45;;;;;;;;;;;;;;;10.16;88.35;98500.25;104393;1276;72603;-40
2024/04/08 00:47:12;;;;;;;;;;;;;;;10.20;88.08;98498.19;103863;1279;62086;-40
2024/04/08 00:49:39;;;;;;;;;;;;;;;10.20;88.13;98501.52;103770;1282;62284;-39
2024/04/08 00:52:15;;;;;;;;;;;;;;;10.20;87.97;98498.52;103790;1280;75192;-40
2024/04/08 00:54:42;;;;;;;;;;;;;;;10.17;87.97;98500.23;103693;1282;66770;-38
2024/04/08 00:57:10;;;;;;;;;;;;;;;10.17;87.77;98500.41;103724;1281;73237;-40
2024/04/08 00:59:37;;;;;;;;;;;;;;;10.18;87.79;98498.52;103755;1279;62098;-39
2024/04/08 01:02:05;;;;;;;;;;;;;;;10.18;87.57;98494.23;104014;1276;62188;-38
2024/04/08 01:04:32;;;;;;;;;;;;;;;10.18;87.51;98493.06;103993;1279;74923;-39
2024/04/08 01:06:59;;;;;;;;;;;;;;;10.16;87.55;98494.31;103843;1282;66140;-39
2024/04/08 01:09:27;;;;;;;;;;;;;;;10.13;87.71;98491.05;103954;1277;73017;-39
2024/04/08 01:11:54;;;;;;;;;;;;;;;10.11;87.86;98489.38;104068;1277;62260;-39
2024/04/08 01:14:22;;;;;;;;;;;;;;;10.10;88.03;98484.34;103956;1276;62074;-39
2024/04/08 01:16:49;;;;;;;;;;;;;;;10.09;87.80;98485.38;104020;1279;75184;-39
2024/04/08 01:19:22;;;;;;;;;;;;;;;10.05;88.04;98482.59;104071;1279;65995;-39
2024/04/08 01:21:50;;;;;;;;;;;;;;;10.03;88.14;98479.34;103935;1279;70418;-39
2024/04/08 01:24:17;;;;;;;;;;;;;;;9.99;88.29;98478.14;104041;1276;62076;-39
2024/04/08 01:26:44;;;;;;;;;;;;;;;9.93;88.55;98475.48;103930;1277;62304;-39
2024/04/08 01:29:11;;;;;;;;;;;;;;;9.91;88.69;98473.08;103827;1276;75215;-39
2024/04/08 01:31:38;;;;;;;;;;;;;;;9.86;88.79;98470.32;103908;1280;65993;-39
2024/04/08 01:34:05;;;;;;;;;;;;;;;9.80;88.85;98468.96;103813;1276;72463;-38
2024/04/08 01:36:32;;;;;;;;;;;;;;;9.81;89.14;98472.11;103966;1279;61999;-39
2024/04/08 01:38:59;;;;;;;;;;;;;;;9.82;89.15;98475.16;104004;1275;62088;-39
2024/04/08 01:41:26;;;;;;;;;;;;;;;9.85;89.25;98476.73;103971;1277;75940;-39
2024/04/08 01:43:53;;;;;;;;;;;;;;;9.90;89.15;98475.77;103779;1279;65811;-39
2024/04/08 01:46:20;;;;;;;;;;;;;;;9.96;89.03;98471.94;103747;1276;72550;-39
2024/04/08 01:48:47;;;;;;;;;;;;;;;9.99;88.91;98470.27;103999;1279;62003;-39
2024/04/08 01:51:15;;;;;;;;;;;;;;;9.93;89.08;98471.58;104063;1277;62033;-39
2024/04/08 01:53:42;;;;;;;;;;;;;;;9.88;89.07;98473.79;103931;1279;75364;-39
2024/04/08 01:56:09;;;;;;;;;;;;;;;9.88;89.01;98472.83;103878;1277;66041;-40
2024/04/08 01:58:36;;;;;;;;;;;;;;;9.92;89.23;98470.45;104012;1277;72550;-40
2024/04/08 02:01:03;;;;;;;;;;;;;;;9.96;89.07;98470.60;103982;1276;62087;-38
2024/04/08 02:03:30;;;;;;;;;;;;;;;10.00;88.93;98464.74;104041;1277;62073;-39
2024/04/08 02:05:57;;;;;;;;;;;;;;;10.00;88.81;98468.82;104031;1275;75181;-39
2024/04/08 02:08:24;;;;;;;;;;;;;;;10.00;88.81;98473.48;103886;1279;66051;-39
2024/04/08 02:10:52;;;;;;;;;;;;;;;10.00;88.78;98477.01;103997;1277;73007;-39
2024/04/08 02:13:19;;;;;;;;;;;;;;;10.02;88.72;98477.80;103790;1277;62088;-39
2024/04/08 02:15:46;;;;;;;;;;;;;;;10.06;88.69;98478.31;103865;1276;62536;-39
2024/04/08 02:18:13;;;;;;;;;;;;;;;10.09;88.43;98480.44;103997;1277;75428;-39
2024/04/08 02:20:40;;;;;;;;;;;;;;;10.11;88.30;98481.30;104061;1279;65798;-39
2024/04/08 02:23:08;;;;;;;;;;;;;;;10.12;88.29;98485.44;103871;1277;73214;-39
2024/04/08 02:25:44;;;;;;;;;;;;;;;10.10;88.28;98483.48;103951;1277;62000;-39
2024/04/08 02:28:11;;;;;;;;;;;;;;;10.08;88.36;98488.27;103889;1276;62101;-39
2024/04/08 02:30:39;;;;;;;;;;;;;;;10.07;88.38;98486.98;103927;1276;75783;-39
2024/04/08 02:33:06;;;;;;;;;;;;;;;10.06;88.39;98488.31;103941;1279;65807;-39
2024/04/08 02:35:37;;;;;;;;;;;;;;;10.06;88.35;98486.66;103893;1277;72622;-39
2024/04/08 02:38:04;;;;;;;;;;;;;;;10.08;88.49;98487.67;103845;1279;62182;-39
2024/04/08 02:40:35;;;;;;;;;;;;;;;10.10;88.28;98485.05;103812;1276;62060;-39
2024/04/08 02:43:02;;;;;;;;;;;;;;;10.14;88.23;98485.16;103779;1279;75758;-39
2024/04/08 02:45:29;;;;;;;;;;;;;;;10.13;88.28;98482.70;103856;1279;65636;-40
2024/04/08 02:47:57;;;;;;;;;;;;;;;10.09;88.22;98485.09;103707;1277;73127;-39
2024/04/08 02:50:24;;;;;;;;;;;;;;;10.05;88.38;98487.20;103776;1280;62085;-39
2024/04/08 02:52:51;;;;;;;;;;;;;;;10.01;88.43;98484.48;103742;1277;62075;-39
2024/04/08 02:55:18;;;;;;;;;;;;;;;9.97;88.63;98483.81;103852;1276;75358;-41
2024/04/08 02:57:45;;;;;;;;;;;;;;;9.89;88.97;98479.03;103853;1279;63959;-40
2024/04/08 03:00:12;;;;;;;;;;;;;;;9.80;89.30;98482.75;103921;1277;71415;-40
2024/04/08 03:02:39;;;;;;;;;;;;;;;9.73;89.67;98482.52;103830;1279;62075;-39
2024/04/08 03:05:07;;;;;;;;;;;;;;;9.65;90.25;98480.45;103954;1277;62098;-41
2024/04/08 03:07:34;;;;;;;;;;;;;;;9.60;90.46;98479.14;103939;1279;75512;-40
2024/04/08 03:10:02;;;;;;;;;;;;;;;9.57;90.75;98480.84;104042;1277;66026;-40
2024/04/08 03:12:29;;;;;;;;;;;;;;;9.54;90.98;98480.96;104065;1277;71464;-40
2024/04/08 03:14:56;;;;;;;;;;;;;;;9.50;91.45;98484.61;104283;1276;62062;-38
2024/04/08 03:17:23;;;;;;;;;;;;;;;9.45;91.92;98490.13;104036;1277;62068;-40
2024/04/08 03:19:51;;;;;;;;;;;;;;;9.41;92.24;98488.15;103773;1279;75385;-39
2024/04/08 03:22:18;;;;;;;;;;;;;;;9.39;92.59;98484.80;104089;1279;65978;-39
2024/04/08 03:24:45;;;;;;;;;;;;;;;9.36;92.70;98482.60;103802;1277;73076;-39
2024/04/08 03:27:12;;;;;;;;;;;;;;;9.32;93.12;98485.45;103664;1276;62225;-39
2024/04/08 03:29:39;;;;;;;;;;;;;;;9.29;93.36;98482.77;104592;1277;62769;-39
2024/04/08 03:32:06;;;;;;;;;;;;;;;9.27;93.59;98482.73;104070;1275;75360;-39
2024/04/08 03:34:35;;;;;;;;;;;;;;;9.24;94.03;98486.09;104022;1276;66058;-39
2024/04/08 03:37:03;;;;;;;;;;;;;;;9.21;95.18;98486.20;104021;1276;72454;-39
2024/04/08 03:39:30;;;;;;;;;;;;;;;9.17;95.40;98487.88;104024;1279;62101;-39
2024/04/08 03:41:57;;;;;;;;;;;;;;;9.17;95.71;98487.92;103889;1276;62194;-39
2024/04/08 03:44:24;;;;;;;;;;;;;;;9.23;95.74;98481.39;103797;1276;75336;-39
2024/04/08 03:46:51;;;;;;;;;;;;;;;9.29;95.68;98479.20;103803;1279;65355;-40
2024/04/08 03:49:18;;;;;;;;;;;;;;;9.32;95.62;98474.10;103754;1277;72537;-39
2024/04/08 03:51:45;;;;;;;;;;;;;;;9.38;95.60;98476.19;103941;1279;62152;-40
2024/04/08 03:54:12;;;;;;;;;;;;;;;9.45;95.39;98476.05;103894;1276;62126;-38
2024/04/08 03:56:40;;;;;;;;;;;;;;;9.58;95.08;98476.78;103883;1279;75371;-39
2024/04/08 03:59:07;;;;;;;;;;;;;;;9.70;94.57;98476.69;103926;1276;65555;-39
2024/04/08 04:01:35;;;;;;;;;;;;;;;9.75;94.23;98475.55;103870;1276;72646;-39
2024/04/08 04:04:02;;;;;;;;;;;;;;;9.69;93.85;98477.77;104027;1280;62143;-39
2024/04/08 04:06:29;;;;;;;;;;;;;;;9.59;93.74;98481.27;104029;1277;62152;-39
2024/04/08 04:08:56;;;;;;;;;;;;;;;9.54;93.75;98480.81;103827;1276;75421;-39
2024/04/08 04:11:25;;;;;;;;;;;;;;;9.51;93.75;98482.68;103899;1277;66189;-39
2024/04/08 04:13:52;;;;;;;;;;;;;;;9.50;93.72;98489.15;103943;1276;72495;-40
2024/04/08 04:16:19;;;;;;;;;;;;;;;9.49;94.04;98486.64;103969;1282;62079;-40
2024/04/08 04:18:46;;;;;;;;;;;;;;;9.51;94.12;98486.96;104009;1277;62187;-40
2024/04/08 04:21:13;;;;;;;;;;;;;;;9.54;94.04;98488.45;104038;1279;75257;-38
2024/04/08 04:23:40;;;;;;;;;;;;;;;9.54;94.60;98490.27;103996;1277;64977;-40
2024/04/08 04:26:07;;;;;;;;;;;;;;;9.52;94.47;98483.96;103954;1277;72555;-38
2024/04/08 04:28:34;;;;;;;;;;;;;;;9.53;94.63;98485.77;103795;1279;62085;-38
2024/04/08 04:31:01;;;;;;;;;;;;;;;9.53;94.58;98483.48;103801;1277;62095;-39
2024/04/08 04:33:30;;;;;;;;;;;;;;;9.53;94.69;98480.22;103853;1279;74364;-39
2024/04/08 04:35:57;;;;;;;;;;;;;;;9.53;94.74;98477.92;103952;1277;65833;-39
2024/04/08 04:38:25;;;;;;;;;;;;;;;9.56;94.77;98478.50;103920;1277;72613;-39
2024/04/08 04:41:01;;;;;;;;;;;;;;;9.59;95.00;98482.60;103993;1279;62091;-39
2024/04/08 04:43:29;;;;;;;;;;;;;;;9.66;94.88;98483.77;103917;1276;62133;-39
2024/04/08 04:45:56;;;;;;;;;;;;;;;9.74;94.99;98487.81;103889;1279;75137;-39
2024/04/08 04:48:23;;;;;;;;;;;;;;;9.80;95.07;98483.34;103889;1277;64144;-38
2024/04/08 04:50:50;;;;;;;;;;;;;;;9.86;94.99;98481.94;103910;1276;72487;-39
2024/04/08 04:53:17;;;;;;;;;;;;;;;9.91;94.83;98480.79;104015;1279;62069;-40
2024/04/08 04:55:51;;;;;;;;;;;;;;;9.99;94.73;98479.52;103914;1277;62127;-39
2024/04/08 04:58:19;;;;;;;;;;;;;;;10.08;94.51;98475.36;103820;1276;74295;-39
2024/04/08 05:00:46;;;;;;;;;;;;;;;10.17;94.08;98476.68;103890;1279;65290;-39
2024/04/08 05:03:13;;;;;;;;;;;;;;;10.26;93.87;98476.75;103921;1279;71682;-39
2024/04/08 05:05:40;;;;;;;;;;;;;;;10.37;93.58;98476.20;103999;1279;62073;-39
2024/04/08 05:08:07;;;;;;;;;;;;;;;10.48;93.28;98479.93;103798;1279;62102;-39
2024/04/08 05:10:34;;;;;;;;;;;;;;;10.60;92.80;98472.67;103967;1275;75993;-39
2024/04/08 05:13:01;;;;;;;;;;;;;;;10.73;92.37;98468.58;104086;1279;66288;-39
2024/04/08 05:15:28;;;;;;;;;;;;;;;10.85;91.87;98471.31;104043;1276;72530;-37
2024/04/08 05:17:55;;;;;;;;;;;;;;;10.98;91.28;98473.41;104130;1276;61958;-37
2024/04/08 05:20:25;;;;;;;;;;;;;;;11.12;90.78;98474.26;103693;1276;62108;-39
2024/04/08 05:22:52;;;;;;;;;;;;;;;11.26;90.45;98474.44;103726;1281;75215;-38
2024/04/08 05:25:19;;;;;;;;;;;;;;;11.38;89.63;98472.61;103935;1280;66398;-37
2024/04/08 05:27:46;;;;;;;;;;;;;;;11.50;89.20;98473.05;103830;1277;73321;-39
2024/04/08 05:30:13;;;;;;;;;;;;;;;11.61;88.59;98468.55;103756;1277;62005;-41
2024/04/08 05:32:40;;;;;;;;;;;;;;;11.72;87.80;98471.22;103795;1276;62159;-38
2024/04/08 05:35:08;;;;;;;;;;;;;;;11.83;87.03;98468.67;103841;1276;75440;-39
2024/04/08 05:37:38;;;;;;;;;;;;;;;11.91;86.28;98469.91;104012;1276;64234;-38
2024/04/08 05:40:09;;;;;;;;;;;;;;;11.99;85.64;98472.02;103835;1277;72413;-39
2024/04/08 05:42:36;;;;;;;;;;;;;;;12.08;85.05;98476.95;103644;1279;62066;-38
2024/04/08 05:45:03;;;;;;;;;;;;;;;12.18;84.55;98475.27;103566;1277;62094;-39
2024/04/08 05:47:33;;;;;;;;;;;;;;;12.29;84.06;98476.67;103625;1277;74265;-39
2024/04/08 05:50:00;;;;;;;;;;;;;;;12.40;83.89;98478.30;103553;1277;66043;-38
2024/04/08 05:52:27;;;;;;;;;;;;;;;12.52;83.49;98478.66;103980;1277;72767;-37
2024/04/08 05:54:54;;;;;;;;;;;;;;;12.64;82.66;98478.23;104024;1276;62234;-39
2024/04/08 05:57:21;;;;;;;;;;;;;;;12.74;81.89;98476.61;103819;1276;62126;-38
2024/04/08 05:59:48;;;;;;;;;;;;;;;12.83;81.36;98476.10;103528;1276;76237;-39
2024/04/08 06:02:15;;;;;;;;;;;;;;;12.93;80.95;98476.69;103717;1277;65975;-40
2024/04/08 06:04:42;;;;;;;;;;;;;;;13.01;80.14;98475.05;103695;1277;72436;-39
2024/04/08 06:07:09;;;;;;;;;;;;;;;13.10;79.91;98475.15;103539;1279;62169;-39
2024/04/08 06:09:36;;;;;;;;;;;;;;;13.18;79.22;98475.66;103541;1276;62165;-39
2024/04/08 06:12:04;;;;;;;;;;;;;;;13.25;79.08;98475.05;103486;1276;75161;-38
2024/04/08 06:14:31;;;;;;;;;;;;;;;13.31;78.93;98478.60;103519;1276;66415;-38
2024/04/08 06:16:59;;;;;;;;;;;;;;;13.39;78.70;98480.51;104713;1275;73052;-38
2024/04/08 06:19:26;;;;;;;;;;;;;;;13.48;78.95;98482.66;105236;1281;62182;-39
2024/04/08 06:21:53;;;;;;;;;;;;;;;13.59;78.25;98478.43;103671;1279;62079;-39
2024/04/08 06:24:20;;;;;;;;;;;;;;;13.68;77.93;98480.09;103493;1279;76226;-39
2024/04/08 06:26:47;;;;;;;;;;;;;;;13.79;77.35;98479.23;104028;1282;65698;-39
2024/04/08 06:29:14;;;;;;;;;;;;;;;13.88;76.94;98478.72;103572;1277;72700;-41
2024/04/08 06:31:41;;;;;;;;;;;;;;;14.01;76.33;98476.05;103631;1279;62011;-40
2024/04/08 06:34:08;;;;;;;;;;;;;;;14.12;75.92;98480.83;103833;1276;62242;-40
2024/04/08 06:36:35;;;;;;;;;;;;;;;14.21;75.98;98479.34;103751;1277;74877;-38
2024/04/08 06:39:03;;;;;;;;;;;;;;;14.30;75.28;98482.55;104541;1277;65423;-40
2024/04/08 06:41:30;;;;;;;;;;;;;;;14.38;74.75;98482.83;103438;1275;73317;-37
2024/04/08 06:43:57;;;;;;;;;;;;;;;14.46;74.88;98487.67;103611;1277;62197;-37
2024/04/08 06:46:24;;;;;;;;;;;;;;;14.54;73.96;98487.65;103614;1277;62158;-38
2024/04/08 06:48:51;;;;;;;;;;;;;;;14.64;73.69;98487.55;103466;1277;75586;-38
2024/04/08 06:51:18;;;;;;;;;;;;;;;14.73;73.19;98487.44;103613;1279;65972;-37
2024/04/08 06:53:46;;;;;;;;;;;;;;;14.82;72.87;98487.97;103768;1279;72942;-39
2024/04/08 06:56:16;;;;;;;;;;;;;;;14.93;72.51;98487.78;103830;1277;62186;-38
2024/04/08 06:58:43;;;;;;;;;;;;;;;15.05;72.50;98482.56;105869;1276;62095;-41
2024/04/08 07:01:11;;;;;;;;;;;;;;;15.17;72.28;98486.64;103903;1279;75885;-41
2024/04/08 07:03:38;;;;;;;;;;;;;;;15.28;70.76;98492.84;103549;1279;67351;-40
2024/04/08 07:06:07;;;;;;;;;;;;;;;15.39;71.04;98494.30;103604;1279;72522;-42
2024/04/08 07:08:35;;;;;;;;;;;;;;;15.51;70.64;98496.98;103636;1279;62009;-40
2024/04/08 07:11:02;;;;;;;;;;;;;;;15.61;69.43;98494.87;103917;1277;62181;-43
2024/04/08 07:13:29;;;;;;;;;;;;;;;15.70;69.28;98497.92;103862;1276;75407;-42
2024/04/08 07:15:57;;;;;;;;;;;;;;;15.79;69.65;98492.27;103785;1279;64228;-41
2024/04/08 07:18:24;;;;;;;;;;;;;;;15.91;69.24;98490.06;103618;1277;73303;-40
2024/04/08 07:20:51;;;;;;;;;;;;;;;16.01;68.71;98490.54;107399;1276;61313;-39
2024/04/08 07:23:18;;;;;;;;;;;;;;;16.08;68.65;98486.27;104367;1279;62005;-40
2024/04/08 07:25:45;;;;;;;;;;;;;;;16.18;68.06;98490.75;103762;1279;75643;-41
2024/04/08 07:28:12;;;;;;;;;;;;;;;16.28;67.90;98488.45;104476;1277;67651;-37
2024/04/08 07:30:39;;;;;;;;;;;;;;;16.37;67.13;98487.73;103577;1279;74058;-41
2024/04/08 07:33:06;;;;;;;;;;;;;;;16.47;67.04;98486.77;103776;1275;62336;-39
2024/04/08 07:35:33;;;;;;;;;;;;;;;16.54;65.27;98488.42;103836;1276;62101;-39
2024/04/08 07:38:03;;;;;;;;;;;;;;;16.59;63.36;98487.27;103436;1279;75819;-39
2024/04/08 07:40:30;;;;;;;;;;;;;;;16.62;63.68;98483.38;103485;1276;66273;-40
2024/04/08 07:42:57;;;;;;;;;;;;;;;16.65;63.88;98488.09;103684;1276;71958;-39
2024/04/08 07:45:24;;;;;;;;;;;;;;;16.72;64.57;98484.95;103663;1276;62092;-39
2024/04/08 07:47:51;;;;;;;;;;;;;;;16.80;64.46;98487.27;104029;1277;62036;-39
2024/04/08 07:50:19;;;;;;;;;;;;;;;16.89;62.74;98484.70;103383;1277;75612;-42
2024/04/08 07:52:46;;;;;;;;;;;;;;;16.93;62.02;98481.12;103501;1279;66928;-39
2024/04/08 07:55:13;;;;;;;;;;;;;;;16.97;62.88;98476.88;103434;1277;72400;-39
2024/04/08 07:57:41;;;;;;;;;;;;;;;17.05;62.96;98475.77;103492;1279;62069;-39
2024/04/08 08:00:08;;;;;;;;;;;;;;;17.13;62.30;98474.56;103872;1275;62104;-39
2024/04/08 08:02:38;;;;;;;;;;;;;;;17.21;61.71;98467.43;105411;1276;75165;-40
2024/04/08 08:05:06;;;;;;;;;;;;;;;17.28;61.89;98468.27;103530;1279;66337;-40
2024/04/08 08:07:34;;;;;;;;;;;;;;;17.35;60.97;98474.38;103833;1277;72040;-40
2024/04/08 08:10:01;;;;;;;;;;;;;;;17.40;60.44;98477.20;103604;1279;62043;-41
2024/04/08 08:12:28;;;;;;;;;;;;;;;17.45;59.50;98478.89;103465;1279;62050;-40
2024/04/08 08:14:55;;;;;;;;;;;;;;;17.52;58.36;98483.36;103452;1279;74731;-39
2024/04/08 08:17:28;;;;;;;;;;;;;;;17.54;57.91;98481.17;103548;1279;66262;-39
2024/04/08 08:19:56;;;;;;;;;;;;;;;17.57;58.52;98479.57;107528;1277;71865;-40
2024/04/08 08:22:26;;;;;;;;;;;;;;;17.63;57.97;98481.61;107641;1275;60873;-44
2024/04/08 08:24:52;;;;;;;;;;;;;;;17.68;57.37;98481.15;107645;1275;61072;-41
2024/04/08 08:27:19;;;;;;;;;;;;;;;17.74;56.71;98477.58;103990;1279;75418;-40
2024/04/08 08:29:54;;;;;;;;;;;;;;;17.80;56.29;98481.30;104896;1276;66274;-40
2024/04/08 08:32:24;;;;;;;;;;;;;;;17.86;56.05;98479.20;103708;1277;73272;-40
2024/04/08 08:34:53;;;;;;;;;;;;;;;17.96;57.81;98476.29;103569;1279;62785;-41
2024/04/08 08:37:20;;;;;;;;;;;;;;;18.11;57.03;98478.45;104781;1276;60542;-40
2024/04/08 08:39:50;;;;;;;;;;;;;;;18.21;56.24;98479.19;103440;1279;75544;-39
2024/04/08 08:42:21;;;;;;;;;;;;;;;18.29;54.93;98478.53;107494;1276;65469;-41
2024/04/08 08:44:50;;;;;;;;;;;;;;;18.36;55.60;98473.56;106340;1279;72377;-42
2024/04/08 08:47:17;;;;;;;;;;;;;;;18.47;55.02;98473.39;103353;1279;61950;-40
2024/04/08 08:49:43;;;;;;;;;;;;;;;18.59;55.20;98470.83;103392;1276;62402;-39
2024/04/08 08:52:10;;;;;;;;;;;;;;;18.71;54.44;98475.61;103424;1279;76692;-41
2024/04/08 08:54:37;;;;;;;;;;;;;;;18.81;53.91;98473.75;107496;1276;66277;-40
2024/04/08 08:57:04;;;;;;;;;;;;;;;18.86;53.45;98474.56;105162;1277;72240;-38
2024/04/08 08:59:31;;;;;;;;;;;;;;;18.90;53.74;98463.92;103279;1282;62104;-40
2024/04/08 09:01:59;;;;;;;;;;;;;;;18.97;54.10;98464.54;106494;1279;60595;-40
2024/04/08 09:04:29;;;;;;;;;;;;;;;19.06;53.10;98459.05;103343;1278;76338;-41
2024/04/08 09:06:56;;;;;;;;;;;;;;;19.16;53.33;98452.28;103517;1282;66653;-40
2024/04/08 09:09:24;;;;;;;;;;;;;;;19.27;52.70;98453.90;105154;1277;73338;-41
2024/04/08 09:11:51;;;;;;;;;;;;;;;19.35;52.05;98450.30;104615;1279;62194;-39
2024/04/08 09:14:18;;;;;;;;;;;;;;;19.42;51.22;98452.04;105145;1276;61961;-41
2024/04/08 09:16:48;;;;;;;;;;;;;;;19.47;50.79;98447.00;104317;1276;75945;-39
2024/04/08 09:19:15;;;;;;;;;;;;;;;19.53;50.24;98446.84;103907;1277;67818;-40
2024/04/08 09:21:43;;;;;;;;;;;;;;;19.60;50.06;98446.05;103643;1275;72812;-39
2024/04/08 09:24:10;;;;;;;;;;;;;;;19.66;50.43;98443.61;104137;1279;62075;-37
2024/04/08 09:26:39;;;;;;;;;;;;;;;19.72;51.01;98443.52;103609;1276;62108;-43
2024/04/08 09:29:06;;;;;;;;;;;;;;;19.81;49.53;98444.02;103550;1276;75984;-41
2024/04/08 09:31:33;;;;;;;;;;;;;;;19.85;49.09;98445.94;103471;1279;66166;-44
2024/04/08 09:34:00;;;;;;;;;;;;;;;19.88;48.67;98442.79;103454;1279;73422;-41
2024/04/08 09:36:27;;;;;;;;;;;;;;;19.94;48.99;98435.67;103602;1276;62161;-38
2024/04/08 09:38:55;;;;;;;;;;;;;;;20.03;48.75;98433.16;103549;1277;62194;-38
2024/04/08 09:41:22;;;;;;;;;;;;;;;20.12;48.22;98432.83;103725;1279;75136;-39
2024/04/08 09:43:50;;;;;;;;;;;;;;;20.22;47.61;98432.84;103270;1277;67098;-38
2024/04/08 09:46:17;;;;;;;;;;;;;;;20.29;47.39;98426.69;103586;1280;72704;-37
2024/04/08 09:48:44;;;;;;;;;;;;;;;20.38;47.42;98422.01;103429;1282;62274;-39
2024/04/08 09:51:11;;;;;;;;;;;;;;;20.50;45.90;98423.97;107516;1276;60044;-39
2024/04/08 09:53:38;;;;;;;;;;;;;;;20.52;45.04;98416.64;107505;1276;75412;-42
2024/04/08 09:56:11;;;;;;;;;;;;;;;20.55;46.44;98418.07;107313;1276;65018;-42
2024/04/08 09:58:39;;;;;;;;;;;;;;;20.63;47.04;98416.73;104172;1276;72503;-41
2024/04/08 10:01:06;;;;;;;;;;;;;;;20.72;45.55;98420.02;107251;1276;61079;-41
2024/04/08 10:03:39;;;;;;;;;;;;;;;20.77;45.68;98421.32;103508;1275;62203;-42
2024/04/08 10:06:06;;;;;;;;;;;;;;;20.81;45.92;98422.08;103553;1280;75123;-37
2024/04/08 10:08:33;;;;;;;;;;;;;;;20.90;44.60;98416.94;103700;1279;67085;-43
2024/04/08 10:11:00;;;;;;;;;;;;;;;20.95;45.18;98411.80;103349;1279;71804;-40
2024/04/08 10:13:29;;;;;;;;;;;;;;;21.04;44.94;98409.16;103829;1279;62194;-41
2024/04/08 10:16:11;;;;;;;;;;;;;;;21.13;45.27;98407.50;103568;1275;62108;-39
2024/04/08 10:18:51;;;;;;;;;;;;;;;21.21;44.82;98404.37;103824;1279;76180;-39
2024/04/08 10:21:18;;;;;;;;;;;;;;;21.32;44.56;98404.88;105712;1276;65329;-40
2024/04/08 10:23:46;;;;;;;;;;;;;;;21.42;43.80;98404.91;105118;1277;72489;-41
2024/04/08 10:26:15;;;;;;;;;;;;;;;21.50;43.15;98402.93;103790;1279;62184;-39
2024/04/08 10:28:42;;;;;;;;;;;;;;;21.58;43.09;98400.78;103649;1276;62087;-40
2024/04/08 10:31:09;;;;;;;;;;;;;;;21.65;41.46;98398.07;103648;1277;75156;-41
2024/04/08 10:33:36;;;;;;;;;;;;;;;21.67;41.68;98397.75;103771;1279;66257;-40
2024/04/08 10:36:04;;;;;;;;;;;;;;;21.72;42.10;98396.16;103666;1277;72530;-39
2024/04/08 10:38:31;;;;;;;;;;;;;;;21.83;41.12;98393.93;103951;1277;62975;-41
2024/04/08 10:41:05;;;;;;;;;;;;;;;21.91;39.69;98390.39;103625;1277;62142;-40
2024/04/08 10:43:33;;;;;;;;;;;;;;;21.93;40.32;98387.86;103835;1279;74553;-40
2024/04/08 10:46:03;;;;;;;;;;;;;;;21.96;40.19;98385.05;103838;1279;66118;-39
2024/04/08 10:48:31;;;;;;;;;;;;;;;22.03;39.44;98379.44;103900;1276;72571;-39
2024/04/08 10:50:59;;;;;;;;;;;;;;;22.10;40.25;98379.39;104020;1277;61935;-38
2024/04/08 10:53:26;;;;;;;;;;;;;;;22.22;38.96;98368.98;103852;1277;62831;-42
2024/04/08 10:55:56;;;;;;;;;;;;;;;22.36;38.88;98363.96;103579;1277;75200;-40
2024/04/08 10:58:23;;;;;;;;;;;;;;;22.55;38.53;98365.52;103504;1279;65581;-39
2024/04/08 11:00:50;;;;;;;;;;;;;;;22.76;39.10;98365.03;103864;1279;72404;-40
2024/04/08 11:03:17;;;;;;;;;;;;;;;23.04;39.15;98358.00;103510;1277;62103;-39
2024/04/08 11:05:47;;;;;;;;;;;;;;;23.38;38.39;98350.02;103901;1277;62193;-42
2024/04/08 11:08:16;;;;;;;;;;;;;;;23.70;36.86;98353.45;103784;1278;75373;-39
2024/04/08 11:10:43;;;;;;;;;;;;;;;24.00;35.83;98349.20;103723;1280;66831;-41
2024/04/08 11:13:11;;;;;;;;;;;;;;;24.25;35.79;98347.78;103752;1279;72658;-41
2024/04/08 11:15:39;;;;;;;;;;;;;;;24.55;34.09;98347.37;103851;1283;62028;-40
2024/04/08 11:18:10;;;;;;;;;;;;;;;24.88;33.30;98345.27;103643;1277;213927;-41
2024/04/08 11:20:37;;;;;;;;;;;;;;;25.10;33.59;98346.44;103598;1276;75115;-39
2024/04/08 11:23:05;;;;;;;;;;;;;;;25.34;33.09;98341.56;103693;1281;67391;-41
2024/04/08 11:25:32;;;;;;;;;;;;;;;25.56;33.57;98339.20;103554;1277;71950;-38
2024/04/08 11:28:00;;;;;;;;;;;;;;;25.84;32.41;98337.75;103667;1277;62257;-40
2024/04/08 11:30:34;;;;;;;;;;;;;;;26.09;32.48;98334.23;103547;1277;62220;-39
2024/04/08 11:33:04;;;;;;;;;;;;;;;26.34;31.28;98327.47;103419;1276;75521;-39
2024/04/08 11:35:32;;;;;;;;;;;;;;;26.54;30.52;98325.76;103939;1277;67632;-40
2024/04/08 11:37:59;;;;;;;;;;;;;;;26.84;30.85;98321.86;103914;1279;72674;-40
2024/04/08 11:40:42;;;;;;;;;;;;;;;27.37;30.70;98314.96;103705;1279;62083;-40
2024/04/08 11:43:10;;;;;;;;;;;;;;;27.51;29.74;98316.30;103660;1277;62111;-40
2024/04/08 11:45:38;;;;;;;;;;;;;;;27.29;29.58;98314.80;103804;1279;75188;-41
2024/04/08 11:48:06;;;;;;;;;;;;;;;27.13;29.91;98313.42;103998;1277;66310;-41
2024/04/08 11:50:34;;;;;;;;;;;;;;;27.48;30.03;98309.30;103854;1277;72897;-40
2024/04/08 11:53:02;;;;;;;;;;;;;;;27.73;28.28;98307.31;103596;1279;62052;-42
2024/04/08 11:55:29;;;;;;;;;;;;;;;27.77;28.17;98301.73;103804;1279;62120;-42
2024/04/08 11:57:56;;;;;;;;;;;;;;;27.82;28.43;98299.27;103635;1279;76040;-41
2024/04/08 12:00:25;;;;;;;;;;;;;;;27.97;28.30;98294.39;103693;1277;65524;-38
2024/04/08 12:02:53;;;;;;;;;;;;;;;27.98;27.88;98294.47;104179;1279;72432;-39
2024/04/08 12:05:20;;;;;;;;;;;;;;;27.79;27.80;98295.11;103502;1280;62148;-41
2024/04/08 12:07:47;;;;;;;;;;;;;;;27.70;28.52;98296.86;104841;1279;62068;-38
2024/04/08 12:10:14;;;;;;;;;;;;;;;27.73;28.00;98294.98;103549;1279;75757;-41
2024/04/08 12:12:41;;;;;;;;;;;;;;;27.72;27.96;98294.59;103998;1279;66074;-41
2024/04/08 12:15:08;;;;;;;;;;;;;;;27.79;28.13;98288.66;103648;1279;72418;-42
2024/04/08 12:17:35;;;;;;;;;;;;;;;28.14;27.54;98287.02;103750;1279;62001;-43
2024/04/08 12:20:04;;;;;;;;;;;;;;;28.45;26.67;98285.64;103901;1277;62053;-39
2024/04/08 12:22:32;;;;;;;;;;;;;;;28.57;26.26;98285.12;103680;1279;75554;-40
2024/04/08 12:24:59;;;;;;;;;;;;;;;28.52;27.02;98289.79;103919;1279;66556;-40
2024/04/08 12:27:28;;;;;;;;;;;;;;;28.58;27.17;98285.05;103601;1277;72681;-38
2024/04/08 12:29:55;;;;;;;;;;;;;;;28.67;26.08;98285.40;103878;1279;63215;-38
2024/04/08 12:32:22;;;;;;;;;;;;;;;28.56;26.29;98280.02;104031;1279;62100;-38
2024/04/08 12:34:51;;;;;;;;;;;;;;;28.54;25.69;98279.46;104115;1279;75865;-38
2024/04/08 12:37:19;;;;;;;;;;;;;;;28.43;26.07;98276.53;103570;1277;66341;-37
2024/04/08 12:39:46;;;;;;;;;;;;;;;28.56;26.68;98276.33;103620;1276;72574;-37